sensor_id;sensor_type;location;lat;lon;timestamp;P1;durP1;ratioP1;P2;durP2;ratioP2
55800;SDS011;41730;51.960;20.158;2022-11-04T00:00:29;15.70;;;8.60;;
55800;SDS011;41730;51.960;20.158;2022-11-04T00:02:58;12.40;;;8.20;;
55800;SDS011;41730;51.960;20.158;2022-11-04T00:05:27;15.30;;;8.70;;
55800;SDS011;41730;51.960;20.158;2022-11-04T00:07:56;15.40;;;8.40;;
55800;SDS011;41730;51.960;20.158;2022-11-04T00:10:43;14.00;;;8.80;;
55800;SDS011;41730;51.960;20.158;2022-11-04T00:13:30;16.00;;;9.10;;
55800;SDS011;41730;51.960;20.158;2022-11-04T00:16:00;16.90;;;9.30;;
55800;SDS011;41730;51.960;20.158;2022-11-04T00:18:47;16.00;;;9.10;;
55800;SDS011;41730;51.960;20.158;2022-11-04T00:21:17;14.40;;;8.90;;
55800;SDS011;41730;51.960;20.158;2022-11-04T00:24:04;15.90;;;9.30;;
55800;SDS011;41730;51.960;20.158;2022-11-04T00:26:53;17.60;;;9.60;;
55800;SDS011;41730;51.960;20.158;2022-11-04T00:29:39;16.70;;;8.80;;
55800;SDS011;41730;51.960;20.158;2022-11-04T00:32:08;16.40;;;9.20;;
55800;SDS011;41730;51.960;20.158;2022-11-04T00:34:55;17.30;;;9.50;;
55800;SDS011;41730;51.960;20.158;2022-11-04T00:37:24;16.50;;;8.50;;
55800;SDS011;41730;51.960;20.158;2022-11-04T00:39:53;14.60;;;10.10;;
55800;SDS011;41730;51.960;20.158;2022-11-04T00:42:23;14.50;;;9.60;;
55800;SDS011;41730;51.960;20.158;2022-11-04T00:44:52;17.90;;;9.70;;
55800;SDS011;41730;51.960;20.158;2022-11-04T00:47:21;14.00;;;9.20;;
55800;SDS011;41730;51.960;20.158;2022-11-04T00:49:50;15.40;;;9.80;;
55800;SDS011;41730;51.960;20.158;2022-11-04T00:52:19;14.60;;;9.70;;
55800;SDS011;41730;51.960;20.158;2022-11-04T00:54:48;14.30;;;9.00;;
55800;SDS011;41730;51.960;20.158;2022-11-04T00:57:17;14.80;;;9.20;;
55800;SDS011;41730;51.960;20.158;2022-11-04T00:59:47;14.20;;;9.70;;
55800;SDS011;41730;51.960;20.158;2022-11-04T01:02:16;16.20;;;9.70;;
55800;SDS011;41730;51.960;20.158;2022-11-04T01:04:46;14.40;;;8.90;;
55800;SDS011;41730;51.960;20.158;2022-11-04T01:07:15;13.80;;;9.40;;
55800;SDS011;41730;51.960;20.158;2022-11-04T01:09:44;17.70;;;9.50;;
55800;SDS011;41730;51.960;20.158;2022-11-04T01:12:13;16.70;;;10.10;;
55800;SDS011;41730;51.960;20.158;2022-11-04T01:14:42;15.40;;;9.50;;
55800;SDS011;41730;51.960;20.158;2022-11-04T01:17:15;15.70;;;10.00;;
55800;SDS011;41730;51.960;20.158;2022-11-04T01:19:44;16.20;;;9.80;;
55800;SDS011;41730;51.960;20.158;2022-11-04T01:22:13;14.20;;;9.00;;
55800;SDS011;41730;51.960;20.158;2022-11-04T01:24:43;16.00;;;10.20;;
55800;SDS011;41730;51.960;20.158;2022-11-04T01:27:12;16.30;;;9.80;;
55800;SDS011;41730;51.960;20.158;2022-11-04T01:29:41;17.40;;;9.70;;
55800;SDS011;41730;51.960;20.158;2022-11-04T01:32:10;17.30;;;10.60;;
55800;SDS011;41730;51.960;20.158;2022-11-04T01:34:39;15.80;;;9.90;;
55800;SDS011;41730;51.960;20.158;2022-11-04T01:37:10;18.30;;;9.80;;
55800;SDS011;41730;51.960;20.158;2022-11-04T01:39:39;17.10;;;10.30;;
55800;SDS011;41730;51.960;20.158;2022-11-04T01:42:12;13.60;;;9.30;;
55800;SDS011;41730;51.960;20.158;2022-11-04T01:44:52;16.40;;;10.90;;
55800;SDS011;41730;51.960;20.158;2022-11-04T01:47:27;16.10;;;10.00;;
55800;SDS011;41730;51.960;20.158;2022-11-04T01:50:03;17.90;;;9.90;;
55800;SDS011;41730;51.960;20.158;2022-11-04T01:52:38;14.30;;;9.80;;
55800;SDS011;41730;51.960;20.158;2022-11-04T01:55:11;15.40;;;10.30;;
55800;SDS011;41730;51.960;20.158;2022-11-04T01:57:44;16.00;;;10.00;;
55800;SDS011;41730;51.960;20.158;2022-11-04T02:00:16;18.60;;;10.50;;
55800;SDS011;41730;51.960;20.158;2022-11-04T02:02:53;14.10;;;9.50;;
55800;SDS011;41730;51.960;20.158;2022-11-04T02:05:26;16.20;;;9.70;;
55800;SDS011;41730;51.960;20.158;2022-11-04T02:07:56;15.50;;;9.70;;
55800;SDS011;41730;51.960;20.158;2022-11-04T02:10:28;16.50;;;9.70;;
55800;SDS011;41730;51.960;20.158;2022-11-04T02:12:59;16.60;;;9.90;;
55800;SDS011;41730;51.960;20.158;2022-11-04T02:15:31;17.50;;;10.10;;
55800;SDS011;41730;51.960;20.158;2022-11-04T02:18:18;19.20;;;10.10;;
55800;SDS011;41730;51.960;20.158;2022-11-04T02:21:19;17.20;;;10.10;;
55800;SDS011;41730;51.960;20.158;2022-11-04T02:24:20;16.60;;;9.60;;
55800;SDS011;41730;51.960;20.158;2022-11-04T02:30:01;16.40;;;9.20;;
55800;SDS011;41730;51.960;20.158;2022-11-04T02:32:41;17.60;;;9.90;;
55800;SDS011;41730;51.960;20.158;2022-11-04T02:35:20;17.90;;;9.90;;
55800;SDS011;41730;51.960;20.158;2022-11-04T02:37:55;16.20;;;10.20;;
55800;SDS011;41730;51.960;20.158;2022-11-04T02:40:32;13.40;;;9.70;;
55800;SDS011;41730;51.960;20.158;2022-11-04T02:43:09;14.80;;;9.50;;
55800;SDS011;41730;51.960;20.158;2022-11-04T02:45:43;15.60;;;9.60;;
55800;SDS011;41730;51.960;20.158;2022-11-04T02:48:16;20.30;;;11.00;;
55800;SDS011;41730;51.960;20.158;2022-11-04T02:50:51;14.90;;;10.20;;
55800;SDS011;41730;51.960;20.158;2022-11-04T02:53:28;14.50;;;9.60;;
55800;SDS011;41730;51.960;20.158;2022-11-04T02:56:00;17.40;;;10.10;;
55800;SDS011;41730;51.960;20.158;2022-11-04T02:58:32;16.00;;;9.40;;
55800;SDS011;41730;51.960;20.158;2022-11-04T03:01:06;17.30;;;9.20;;
55800;SDS011;41730;51.960;20.158;2022-11-04T03:03:39;13.70;;;9.80;;
55800;SDS011;41730;51.960;20.158;2022-11-04T03:06:14;14.70;;;9.60;;
55800;SDS011;41730;51.960;20.158;2022-11-04T03:08:49;14.70;;;9.80;;
55800;SDS011;41730;51.960;20.158;2022-11-04T03:11:20;15.80;;;10.00;;
55800;SDS011;41730;51.960;20.158;2022-11-04T03:13:53;13.40;;;9.30;;
55800;SDS011;41730;51.960;20.158;2022-11-04T03:16:26;15.60;;;10.20;;
55800;SDS011;41730;51.960;20.158;2022-11-04T03:19:03;15.10;;;9.20;;
55800;SDS011;41730;51.960;20.158;2022-11-04T03:21:39;15.40;;;9.70;;
55800;SDS011;41730;51.960;20.158;2022-11-04T03:24:15;15.40;;;10.20;;
55800;SDS011;41730;51.960;20.158;2022-11-04T03:26:45;13.50;;;9.30;;
55800;SDS011;41730;51.960;20.158;2022-11-04T03:29:21;15.20;;;10.70;;
55800;SDS011;41730;51.960;20.158;2022-11-04T03:31:56;15.60;;;9.90;;
55800;SDS011;41730;51.960;20.158;2022-11-04T03:34:35;15.20;;;10.40;;
55800;SDS011;41730;51.960;20.158;2022-11-04T03:37:04;15.40;;;10.00;;
55800;SDS011;41730;51.960;20.158;2022-11-04T03:39:33;17.00;;;9.90;;
55800;SDS011;41730;51.960;20.158;2022-11-04T03:42:03;15.20;;;9.50;;
55800;SDS011;41730;51.960;20.158;2022-11-04T03:44:45;16.40;;;10.20;;
55800;SDS011;41730;51.960;20.158;2022-11-04T03:47:16;14.60;;;9.90;;
55800;SDS011;41730;51.960;20.158;2022-11-04T03:49:47;14.40;;;9.50;;
55800;SDS011;41730;51.960;20.158;2022-11-04T03:52:17;15.50;;;9.40;;
55800;SDS011;41730;51.960;20.158;2022-11-04T03:54:47;16.20;;;9.80;;
55800;SDS011;41730;51.960;20.158;2022-11-04T03:57:18;15.50;;;9.70;;
55800;SDS011;41730;51.960;20.158;2022-11-04T04:00:04;18.90;;;10.10;;
55800;SDS011;41730;51.960;20.158;2022-11-04T04:02:53;15.40;;;9.70;;
55800;SDS011;41730;51.960;20.158;2022-11-04T04:05:26;16.80;;;10.00;;
55800;SDS011;41730;51.960;20.158;2022-11-04T04:07:59;16.10;;;9.20;;
55800;SDS011;41730;51.960;20.158;2022-11-04T04:10:39;16.50;;;9.80;;
55800;SDS011;41730;51.960;20.158;2022-11-04T04:13:24;15.80;;;10.10;;
55800;SDS011;41730;51.960;20.158;2022-11-04T04:16:08;12.30;;;8.80;;
55800;SDS011;41730;51.960;20.158;2022-11-04T04:18:42;17.20;;;10.10;;
55800;SDS011;41730;51.960;20.158;2022-11-04T04:21:25;14.30;;;9.70;;
55800;SDS011;41730;51.960;20.158;2022-11-04T04:23:58;16.80;;;10.20;;
55800;SDS011;41730;51.960;20.158;2022-11-04T04:26:47;14.30;;;9.90;;
55800;SDS011;41730;51.960;20.158;2022-11-04T04:29:37;15.60;;;9.20;;
55800;SDS011;41730;51.960;20.158;2022-11-04T04:32:09;14.40;;;9.40;;
55800;SDS011;41730;51.960;20.158;2022-11-04T04:34:44;15.00;;;9.70;;
55800;SDS011;41730;51.960;20.158;2022-11-04T04:37:20;16.50;;;9.40;;
55800;SDS011;41730;51.960;20.158;2022-11-04T04:39:57;14.10;;;9.50;;
55800;SDS011;41730;51.960;20.158;2022-11-04T04:42:51;14.70;;;9.00;;
55800;SDS011;41730;51.960;20.158;2022-11-04T04:45:39;11.20;;;8.30;;
55800;SDS011;41730;51.960;20.158;2022-11-04T04:48:10;16.70;;;8.50;;
55800;SDS011;41730;51.960;20.158;2022-11-04T04:50:40;15.10;;;8.50;;
55800;SDS011;41730;51.960;20.158;2022-11-04T04:53:12;12.30;;;8.20;;
55800;SDS011;41730;51.960;20.158;2022-11-04T04:55:41;12.80;;;8.20;;
55800;SDS011;41730;51.960;20.158;2022-11-04T04:58:09;13.70;;;8.20;;
55800;SDS011;41730;51.960;20.158;2022-11-04T05:00:38;13.00;;;8.60;;
55800;SDS011;41730;51.960;20.158;2022-11-04T05:03:07;14.50;;;7.60;;
55800;SDS011;41730;51.960;20.158;2022-11-04T05:05:36;12.90;;;8.50;;
55800;SDS011;41730;51.960;20.158;2022-11-04T05:08:06;11.90;;;8.40;;
55800;SDS011;41730;51.960;20.158;2022-11-04T05:10:35;14.50;;;8.50;;
55800;SDS011;41730;51.960;20.158;2022-11-04T05:13:04;14.00;;;8.20;;
55800;SDS011;41730;51.960;20.158;2022-11-04T05:15:51;11.70;;;7.60;;
55800;SDS011;41730;51.960;20.158;2022-11-04T05:18:20;12.10;;;8.00;;
55800;SDS011;41730;51.960;20.158;2022-11-04T05:20:49;12.80;;;8.40;;
55800;SDS011;41730;51.960;20.158;2022-11-04T05:23:18;13.10;;;8.50;;
55800;SDS011;41730;51.960;20.158;2022-11-04T05:25:47;17.60;;;8.30;;
55800;SDS011;41730;51.960;20.158;2022-11-04T05:28:15;15.70;;;8.60;;
55800;SDS011;41730;51.960;20.158;2022-11-04T05:30:44;12.60;;;9.20;;
55800;SDS011;41730;51.960;20.158;2022-11-04T05:33:14;16.30;;;8.80;;
55800;SDS011;41730;51.960;20.158;2022-11-04T05:35:43;14.60;;;8.60;;
55800;SDS011;41730;51.960;20.158;2022-11-04T05:38:12;12.90;;;8.80;;
55800;SDS011;41730;51.960;20.158;2022-11-04T05:40:40;16.10;;;8.90;;
55800;SDS011;41730;51.960;20.158;2022-11-04T05:43:09;15.50;;;8.70;;
55800;SDS011;41730;51.960;20.158;2022-11-04T05:45:38;13.50;;;9.30;;
55800;SDS011;41730;51.960;20.158;2022-11-04T05:48:07;13.90;;;9.80;;
55800;SDS011;41730;51.960;20.158;2022-11-04T05:50:35;14.60;;;9.50;;
55800;SDS011;41730;51.960;20.158;2022-11-04T05:53:04;14.80;;;9.70;;
55800;SDS011;41730;51.960;20.158;2022-11-04T05:55:34;14.90;;;9.70;;
55800;SDS011;41730;51.960;20.158;2022-11-04T05:58:02;13.10;;;9.20;;
55800;SDS011;41730;51.960;20.158;2022-11-04T06:00:32;15.40;;;9.40;;
55800;SDS011;41730;51.960;20.158;2022-11-04T06:03:00;14.10;;;9.10;;
55800;SDS011;41730;51.960;20.158;2022-11-04T06:05:30;13.40;;;8.80;;
55800;SDS011;41730;51.960;20.158;2022-11-04T06:07:58;16.90;;;9.70;;
55800;SDS011;41730;51.960;20.158;2022-11-04T06:10:27;14.40;;;9.70;;
55800;SDS011;41730;51.960;20.158;2022-11-04T06:12:56;15.70;;;10.10;;
55800;SDS011;41730;51.960;20.158;2022-11-04T06:15:25;15.20;;;10.20;;
55800;SDS011;41730;51.960;20.158;2022-11-04T06:17:54;18.10;;;12.80;;
55800;SDS011;41730;51.960;20.158;2022-11-04T06:20:23;21.60;;;12.10;;
55800;SDS011;41730;51.960;20.158;2022-11-04T06:22:52;25.60;;;18.90;;
55800;SDS011;41730;51.960;20.158;2022-11-04T06:25:21;21.40;;;15.50;;
55800;SDS011;41730;51.960;20.158;2022-11-04T06:27:50;16.70;;;10.70;;
55800;SDS011;41730;51.960;20.158;2022-11-04T06:30:19;50.00;;;23.20;;
55800;SDS011;41730;51.960;20.158;2022-11-04T06:32:48;35.30;;;17.20;;
55800;SDS011;41730;51.960;20.158;2022-11-04T06:35:16;52.00;;;25.80;;
55800;SDS011;41730;51.960;20.158;2022-11-04T06:37:45;43.60;;;24.50;;
55800;SDS011;41730;51.960;20.158;2022-11-04T06:40:14;27.60;;;16.40;;
55800;SDS011;41730;51.960;20.158;2022-11-04T06:42:43;21.20;;;14.40;;
55800;SDS011;41730;51.960;20.158;2022-11-04T06:45:12;19.50;;;12.80;;
55800;SDS011;41730;51.960;20.158;2022-11-04T06:47:41;20.00;;;12.60;;
55800;SDS011;41730;51.960;20.158;2022-11-04T06:50:10;15.30;;;11.40;;
55800;SDS011;41730;51.960;20.158;2022-11-04T06:52:40;17.20;;;11.00;;
55800;SDS011;41730;51.960;20.158;2022-11-04T06:55:09;16.70;;;11.80;;
55800;SDS011;41730;51.960;20.158;2022-11-04T06:57:38;23.60;;;15.10;;
55800;SDS011;41730;51.960;20.158;2022-11-04T07:00:10;32.30;;;19.30;;
55800;SDS011;41730;51.960;20.158;2022-11-04T07:02:40;24.60;;;15.60;;
55800;SDS011;41730;51.960;20.158;2022-11-04T07:05:10;20.40;;;13.50;;
55800;SDS011;41730;51.960;20.158;2022-11-04T07:07:40;21.20;;;12.00;;
55800;SDS011;41730;51.960;20.158;2022-11-04T07:10:09;20.90;;;12.80;;
55800;SDS011;41730;51.960;20.158;2022-11-04T07:12:38;19.00;;;12.90;;
55800;SDS011;41730;51.960;20.158;2022-11-04T07:15:08;19.00;;;13.60;;
55800;SDS011;41730;51.960;20.158;2022-11-04T07:17:38;18.30;;;13.40;;
55800;SDS011;41730;51.960;20.158;2022-11-04T07:20:09;21.70;;;14.50;;
55800;SDS011;41730;51.960;20.158;2022-11-04T07:22:39;18.40;;;13.60;;
55800;SDS011;41730;51.960;20.158;2022-11-04T07:25:08;20.80;;;13.50;;
55800;SDS011;41730;51.960;20.158;2022-11-04T07:27:37;20.50;;;13.90;;
55800;SDS011;41730;51.960;20.158;2022-11-04T07:30:07;18.70;;;12.70;;
55800;SDS011;41730;51.960;20.158;2022-11-04T07:32:37;19.60;;;13.70;;
55800;SDS011;41730;51.960;20.158;2022-11-04T07:35:07;19.40;;;13.50;;
55800;SDS011;41730;51.960;20.158;2022-11-04T07:37:37;18.10;;;12.30;;
55800;SDS011;41730;51.960;20.158;2022-11-04T07:40:07;21.10;;;13.90;;
55800;SDS011;41730;51.960;20.158;2022-11-04T07:42:38;19.00;;;13.50;;
55800;SDS011;41730;51.960;20.158;2022-11-04T07:45:08;19.20;;;14.40;;
55800;SDS011;41730;51.960;20.158;2022-11-04T07:47:37;20.80;;;14.20;;
55800;SDS011;41730;51.960;20.158;2022-11-04T07:50:07;21.40;;;13.40;;
55800;SDS011;41730;51.960;20.158;2022-11-04T07:52:37;19.60;;;14.00;;
55800;SDS011;41730;51.960;20.158;2022-11-04T07:55:07;21.50;;;14.20;;
55800;SDS011;41730;51.960;20.158;2022-11-04T07:57:36;21.20;;;14.20;;
55800;SDS011;41730;51.960;20.158;2022-11-04T08:00:06;19.90;;;14.00;;
55800;SDS011;41730;51.960;20.158;2022-11-04T08:02:37;19.60;;;13.30;;
55800;SDS011;41730;51.960;20.158;2022-11-04T08:05:07;16.90;;;12.90;;
55800;SDS011;41730;51.960;20.158;2022-11-04T08:07:36;18.10;;;12.70;;
55800;SDS011;41730;51.960;20.158;2022-11-04T08:10:06;20.00;;;13.60;;
55800;SDS011;41730;51.960;20.158;2022-11-04T08:12:36;20.50;;;14.00;;
55800;SDS011;41730;51.960;20.158;2022-11-04T08:15:07;17.20;;;12.70;;
55800;SDS011;41730;51.960;20.158;2022-11-04T08:17:37;18.80;;;14.30;;
55800;SDS011;41730;51.960;20.158;2022-11-04T08:20:07;18.80;;;13.00;;
55800;SDS011;41730;51.960;20.158;2022-11-04T08:22:37;20.10;;;13.50;;
55800;SDS011;41730;51.960;20.158;2022-11-04T08:25:07;18.80;;;12.30;;
55800;SDS011;41730;51.960;20.158;2022-11-04T08:27:39;18.20;;;12.30;;
55800;SDS011;41730;51.960;20.158;2022-11-04T08:30:09;17.60;;;12.40;;
55800;SDS011;41730;51.960;20.158;2022-11-04T08:32:39;17.80;;;12.70;;
55800;SDS011;41730;51.960;20.158;2022-11-04T08:35:08;18.50;;;12.00;;
55800;SDS011;41730;51.960;20.158;2022-11-04T08:37:37;16.80;;;12.00;;
55800;SDS011;41730;51.960;20.158;2022-11-04T08:40:08;16.10;;;11.80;;
55800;SDS011;41730;51.960;20.158;2022-11-04T08:42:38;15.40;;;11.40;;
55800;SDS011;41730;51.960;20.158;2022-11-04T08:45:07;15.90;;;11.60;;
55800;SDS011;41730;51.960;20.158;2022-11-04T08:47:37;16.30;;;12.10;;
55800;SDS011;41730;51.960;20.158;2022-11-04T08:50:07;17.60;;;11.90;;
55800;SDS011;41730;51.960;20.158;2022-11-04T08:52:37;19.60;;;11.90;;
55800;SDS011;41730;51.960;20.158;2022-11-04T08:55:08;16.20;;;11.20;;
55800;SDS011;41730;51.960;20.158;2022-11-04T08:57:38;16.10;;;12.10;;
55800;SDS011;41730;51.960;20.158;2022-11-04T09:00:08;16.40;;;11.70;;
55800;SDS011;41730;51.960;20.158;2022-11-04T09:02:38;13.70;;;10.80;;
55800;SDS011;41730;51.960;20.158;2022-11-04T09:05:07;18.20;;;11.70;;
55800;SDS011;41730;51.960;20.158;2022-11-04T09:07:36;17.00;;;10.80;;
55800;SDS011;41730;51.960;20.158;2022-11-04T09:10:06;14.90;;;10.60;;
55800;SDS011;41730;51.960;20.158;2022-11-04T09:12:36;14.70;;;11.40;;
55800;SDS011;41730;51.960;20.158;2022-11-04T09:15:07;19.60;;;11.80;;
55800;SDS011;41730;51.960;20.158;2022-11-04T09:17:38;18.10;;;12.50;;
55800;SDS011;41730;51.960;20.158;2022-11-04T09:20:11;19.70;;;12.70;;
55800;SDS011;41730;51.960;20.158;2022-11-04T09:22:40;18.90;;;13.60;;
55800;SDS011;41730;51.960;20.158;2022-11-04T09:25:12;15.70;;;11.00;;
55800;SDS011;41730;51.960;20.158;2022-11-04T09:27:41;16.40;;;11.40;;
55800;SDS011;41730;51.960;20.158;2022-11-04T09:30:11;20.20;;;14.40;;
55800;SDS011;41730;51.960;20.158;2022-11-04T09:32:40;17.50;;;11.30;;
55800;SDS011;41730;51.960;20.158;2022-11-04T09:35:13;14.80;;;10.90;;
55800;SDS011;41730;51.960;20.158;2022-11-04T09:37:43;19.80;;;13.10;;
55800;SDS011;41730;51.960;20.158;2022-11-04T09:40:14;21.10;;;13.30;;
55800;SDS011;41730;51.960;20.158;2022-11-04T09:42:47;17.80;;;12.00;;
55800;SDS011;41730;51.960;20.158;2022-11-04T09:45:23;17.70;;;11.20;;
55800;SDS011;41730;51.960;20.158;2022-11-04T09:47:58;24.20;;;16.70;;
55800;SDS011;41730;51.960;20.158;2022-11-04T09:50:31;25.70;;;17.10;;
55800;SDS011;41730;51.960;20.158;2022-11-04T09:53:06;25.00;;;17.20;;
55800;SDS011;41730;51.960;20.158;2022-11-04T09:55:45;19.20;;;13.40;;
55800;SDS011;41730;51.960;20.158;2022-11-04T09:58:19;27.00;;;17.90;;
55800;SDS011;41730;51.960;20.158;2022-11-04T10:00:50;23.90;;;16.10;;
55800;SDS011;41730;51.960;20.158;2022-11-04T10:03:28;22.20;;;14.20;;
55800;SDS011;41730;51.960;20.158;2022-11-04T10:06:14;17.00;;;12.10;;
55800;SDS011;41730;51.960;20.158;2022-11-04T10:09:03;18.20;;;13.80;;
55800;SDS011;41730;51.960;20.158;2022-11-04T10:11:50;16.10;;;11.00;;
55800;SDS011;41730;51.960;20.158;2022-11-04T10:14:33;17.70;;;13.20;;
55800;SDS011;41730;51.960;20.158;2022-11-04T10:20:20;13.90;;;9.80;;
55800;SDS011;41730;51.960;20.158;2022-11-04T10:23:12;15.60;;;10.40;;
55800;SDS011;41730;51.960;20.158;2022-11-04T10:25:48;18.60;;;10.60;;
55800;SDS011;41730;51.960;20.158;2022-11-04T10:28:27;20.10;;;11.20;;
55800;SDS011;41730;51.960;20.158;2022-11-04T10:31:10;15.70;;;10.00;;
55800;SDS011;41730;51.960;20.158;2022-11-04T10:33:52;14.80;;;9.80;;
55800;SDS011;41730;51.960;20.158;2022-11-04T10:36:39;19.90;;;11.00;;
55800;SDS011;41730;51.960;20.158;2022-11-04T10:39:26;16.60;;;11.00;;
55800;SDS011;41730;51.960;20.158;2022-11-04T10:41:57;16.30;;;9.90;;
55800;SDS011;41730;51.960;20.158;2022-11-04T10:44:27;13.70;;;9.20;;
55800;SDS011;41730;51.960;20.158;2022-11-04T10:47:03;13.90;;;9.80;;
55800;SDS011;41730;51.960;20.158;2022-11-04T10:49:42;17.60;;;10.50;;
55800;SDS011;41730;51.960;20.158;2022-11-04T10:52:39;12.20;;;9.20;;
55800;SDS011;41730;51.960;20.158;2022-11-04T10:55:12;14.60;;;9.00;;
55800;SDS011;41730;51.960;20.158;2022-11-04T10:57:49;17.30;;;9.80;;
55800;SDS011;41730;51.960;20.158;2022-11-04T11:00:38;22.20;;;12.30;;
55800;SDS011;41730;51.960;20.158;2022-11-04T11:05:53;40.40;;;21.60;;
55800;SDS011;41730;51.960;20.158;2022-11-04T11:08:37;54.20;;;27.00;;
55800;SDS011;41730;51.960;20.158;2022-11-04T11:11:07;45.10;;;23.40;;
55800;SDS011;41730;51.960;20.158;2022-11-04T11:13:38;30.80;;;17.30;;
55800;SDS011;41730;51.960;20.158;2022-11-04T11:16:11;27.60;;;17.50;;
55800;SDS011;41730;51.960;20.158;2022-11-04T11:18:46;25.50;;;16.40;;
55800;SDS011;41730;51.960;20.158;2022-11-04T11:21:49;25.30;;;15.10;;
55800;SDS011;41730;51.960;20.158;2022-11-04T11:24:22;20.10;;;12.80;;
55800;SDS011;41730;51.960;20.158;2022-11-04T11:26:54;25.80;;;16.40;;
55800;SDS011;41730;51.960;20.158;2022-11-04T11:29:27;22.90;;;13.10;;
55800;SDS011;41730;51.960;20.158;2022-11-04T11:32:15;15.10;;;10.60;;
55800;SDS011;41730;51.960;20.158;2022-11-04T11:34:54;15.60;;;9.90;;
55800;SDS011;41730;51.960;20.158;2022-11-04T11:37:33;14.70;;;10.30;;
55800;SDS011;41730;51.960;20.158;2022-11-04T11:40:04;14.00;;;10.00;;
55800;SDS011;41730;51.960;20.158;2022-11-04T11:42:50;16.40;;;10.80;;
55800;SDS011;41730;51.960;20.158;2022-11-04T11:45:21;16.10;;;10.20;;
55800;SDS011;41730;51.960;20.158;2022-11-04T11:47:54;17.30;;;11.30;;
55800;SDS011;41730;51.960;20.158;2022-11-04T11:50:24;16.30;;;10.50;;
55800;SDS011;41730;51.960;20.158;2022-11-04T11:53:13;15.20;;;9.90;;
55800;SDS011;41730;51.960;20.158;2022-11-04T11:55:47;19.10;;;11.30;;
55800;SDS011;41730;51.960;20.158;2022-11-04T11:58:29;23.30;;;14.50;;
55800;SDS011;41730;51.960;20.158;2022-11-04T12:01:25;23.20;;;15.70;;
55800;SDS011;41730;51.960;20.158;2022-11-04T12:04:00;27.30;;;16.20;;
55800;SDS011;41730;51.960;20.158;2022-11-04T12:06:54;32.60;;;20.00;;
55800;SDS011;41730;51.960;20.158;2022-11-04T12:09:51;25.80;;;15.80;;
55800;SDS011;41730;51.960;20.158;2022-11-04T12:12:33;25.50;;;16.10;;
55800;SDS011;41730;51.960;20.158;2022-11-04T12:15:18;25.00;;;13.10;;
55800;SDS011;41730;51.960;20.158;2022-11-04T12:18:01;25.10;;;15.50;;
55800;SDS011;41730;51.960;20.158;2022-11-04T12:20:44;22.10;;;12.90;;
55800;SDS011;41730;51.960;20.158;2022-11-04T12:23:21;17.60;;;11.00;;
55800;SDS011;41730;51.960;20.158;2022-11-04T12:26:01;16.40;;;10.30;;
55800;SDS011;41730;51.960;20.158;2022-11-04T12:31:18;17.30;;;11.80;;
55800;SDS011;41730;51.960;20.158;2022-11-04T12:33:58;14.60;;;10.20;;
55800;SDS011;41730;51.960;20.158;2022-11-04T12:36:38;22.00;;;13.90;;
55800;SDS011;41730;51.960;20.158;2022-11-04T12:39:24;17.30;;;11.20;;
55800;SDS011;41730;51.960;20.158;2022-11-04T12:42:08;22.30;;;14.10;;
55800;SDS011;41730;51.960;20.158;2022-11-04T12:45:00;22.90;;;13.70;;
55800;SDS011;41730;51.960;20.158;2022-11-04T12:47:38;42.10;;;25.20;;
55800;SDS011;41730;51.960;20.158;2022-11-04T12:53:15;24.60;;;13.40;;
55800;SDS011;41730;51.960;20.158;2022-11-04T12:55:58;23.60;;;13.30;;
55800;SDS011;41730;51.960;20.158;2022-11-04T13:01:27;18.80;;;12.20;;
55800;SDS011;41730;51.960;20.158;2022-11-04T13:04:03;33.80;;;18.80;;
55800;SDS011;41730;51.960;20.158;2022-11-04T13:06:38;30.10;;;17.20;;
55800;SDS011;41730;51.960;20.158;2022-11-04T13:09:11;23.50;;;15.60;;
55800;SDS011;41730;51.960;20.158;2022-11-04T13:11:44;28.10;;;17.30;;
55800;SDS011;41730;51.960;20.158;2022-11-04T13:14:19;46.90;;;28.90;;
55800;SDS011;41730;51.960;20.158;2022-11-04T13:16:55;36.60;;;20.40;;
55800;SDS011;41730;51.960;20.158;2022-11-04T13:19:28;21.10;;;14.20;;
55800;SDS011;41730;51.960;20.158;2022-11-04T13:22:02;21.60;;;13.70;;
55800;SDS011;41730;51.960;20.158;2022-11-04T13:24:36;22.10;;;12.90;;
55800;SDS011;41730;51.960;20.158;2022-11-04T13:27:12;25.70;;;14.70;;
55800;SDS011;41730;51.960;20.158;2022-11-04T13:29:45;25.50;;;15.90;;
55800;SDS011;41730;51.960;20.158;2022-11-04T13:32:18;24.40;;;14.60;;
55800;SDS011;41730;51.960;20.158;2022-11-04T13:34:53;23.80;;;15.00;;
55800;SDS011;41730;51.960;20.158;2022-11-04T13:37:29;23.20;;;14.70;;
55800;SDS011;41730;51.960;20.158;2022-11-04T13:40:05;61.40;;;34.60;;
55800;SDS011;41730;51.960;20.158;2022-11-04T13:42:47;43.90;;;25.40;;
55800;SDS011;41730;51.960;20.158;2022-11-04T13:45:47;51.10;;;26.50;;
55800;SDS011;41730;51.960;20.158;2022-11-04T13:48:18;53.20;;;28.60;;
55800;SDS011;41730;51.960;20.158;2022-11-04T13:50:57;39.30;;;22.10;;
55800;SDS011;41730;51.960;20.158;2022-11-04T13:53:41;57.00;;;30.70;;
55800;SDS011;41730;51.960;20.158;2022-11-04T13:56:28;67.00;;;34.80;;
55800;SDS011;41730;51.960;20.158;2022-11-04T13:59:04;44.00;;;22.40;;
55800;SDS011;41730;51.960;20.158;2022-11-04T14:01:48;30.20;;;16.80;;
55800;SDS011;41730;51.960;20.158;2022-11-04T14:04:37;31.10;;;16.50;;
55800;SDS011;41730;51.960;20.158;2022-11-04T14:08:06;33.30;;;17.10;;
55800;SDS011;41730;51.960;20.158;2022-11-04T14:10:45;21.70;;;14.00;;
55800;SDS011;41730;51.960;20.158;2022-11-04T14:13:48;21.20;;;13.60;;
55800;SDS011;41730;51.960;20.158;2022-11-04T14:16:40;18.50;;;13.30;;
55800;SDS011;41730;51.960;20.158;2022-11-04T14:22:30;20.20;;;13.60;;
55800;SDS011;41730;51.960;20.158;2022-11-04T14:25:21;19.40;;;13.40;;
55800;SDS011;41730;51.960;20.158;2022-11-04T14:30:58;19.50;;;13.70;;
55800;SDS011;41730;51.960;20.158;2022-11-04T14:33:47;19.80;;;13.90;;
55800;SDS011;41730;51.960;20.158;2022-11-04T14:36:25;19.90;;;13.40;;
55800;SDS011;41730;51.960;20.158;2022-11-04T14:39:06;18.80;;;13.10;;
55800;SDS011;41730;51.960;20.158;2022-11-04T14:42:00;18.40;;;12.40;;
55800;SDS011;41730;51.960;20.158;2022-11-04T14:44:41;18.50;;;12.70;;
55800;SDS011;41730;51.960;20.158;2022-11-04T14:47:18;16.00;;;12.00;;
55800;SDS011;41730;51.960;20.158;2022-11-04T14:49:59;16.40;;;11.70;;
55800;SDS011;41730;51.960;20.158;2022-11-04T14:52:32;18.80;;;11.50;;
55800;SDS011;41730;51.960;20.158;2022-11-04T14:55:06;19.10;;;12.70;;
55800;SDS011;41730;51.960;20.158;2022-11-04T14:57:41;16.30;;;11.40;;
55800;SDS011;41730;51.960;20.158;2022-11-04T15:00:29;17.20;;;11.20;;
55800;SDS011;41730;51.960;20.158;2022-11-04T15:03:14;18.10;;;11.60;;
55800;SDS011;41730;51.960;20.158;2022-11-04T15:06:10;17.60;;;11.80;;
55800;SDS011;41730;51.960;20.158;2022-11-04T15:08:43;17.40;;;12.20;;
55800;SDS011;41730;51.960;20.158;2022-11-04T15:11:13;26.00;;;15.40;;
55800;SDS011;41730;51.960;20.158;2022-11-04T15:13:45;24.20;;;16.00;;
55800;SDS011;41730;51.960;20.158;2022-11-04T15:16:24;18.30;;;14.00;;
55800;SDS011;41730;51.960;20.158;2022-11-04T15:19:06;17.80;;;12.70;;
55800;SDS011;41730;51.960;20.158;2022-11-04T15:21:40;19.20;;;13.20;;